<?xml version="1.0" encoding="UTF-8" standalone="no" ?>
<gpx xmlns="http://www.topografix.com/GPX/1/1" xmlns:xsi="http://www.w3.org/2001/XMLSchema-instance" xsi:schemaLocation="http://www.topografix.com/GPX/1/1 http://www.topografix.com/GPX/1/1/gpx.xsd" version="1.1" creator="VisuGPX - https://www.visugpx.com">
  <metadata>
    <name>Tournefort, boucle par Massoins</name>
    <desc><![CDATA[Belle boucle aux sentiers enchanteurs entre Var et Tinée.]]></desc>
  </metadata>
  <trk>
    <name><![CDATA[ACTIVE LOG 005]]></name>
    <trkseg>
      <trkpt lat="43.92546" lon="7.18562">
        <ele>218.3565674</ele>
        <time>2012-03-11T09:24:47Z</time>
      </trkpt>
      <trkpt lat="43.92544" lon="7.18545">
        <ele>219.3179932</ele>
        <time>2012-03-11T09:30:12Z</time>
      </trkpt>
      <trkpt lat="43.92497" lon="7.1862">
        <ele>217.8759766</ele>
        <time>2012-03-11T09:31:00Z</time>
      </trkpt>
      <trkpt lat="43.92397" lon="7.18636">
        <ele>216.43396</ele>
        <time>2012-03-11T09:32:58Z</time>
      </trkpt>
      <trkpt lat="43.92336" lon="7.18601">
        <ele>223.6437988</ele>
        <time>2012-03-11T09:33:46Z</time>
      </trkpt>
      <trkpt lat="43.92329" lon="7.18598">
        <ele>223.6437988</ele>
        <time>2012-03-11T09:33:51Z</time>
      </trkpt>
      <trkpt lat="43.92445" lon="7.18551">
        <ele>240.467041</ele>
        <time>2012-03-11T09:35:05Z</time>
      </trkpt>
      <trkpt lat="43.92444" lon="7.18505">
        <ele>244.3122559</ele>
        <time>2012-03-11T09:35:26Z</time>
      </trkpt>
      <trkpt lat="43.92533" lon="7.18176">
        <ele>269.7871094</ele>
        <time>2012-03-11T09:38:00Z</time>
      </trkpt>
      <trkpt lat="43.92536" lon="7.18112">
        <ele>275.5550537</ele>
        <time>2012-03-11T09:38:29Z</time>
      </trkpt>
      <trkpt lat="43.92623" lon="7.18044">
        <ele>284.6876221</ele>
        <time>2012-03-11T09:39:26Z</time>
      </trkpt>
      <trkpt lat="43.9263" lon="7.18003">
        <ele>288.532959</ele>
        <time>2012-03-11T09:39:47Z</time>
      </trkpt>
      <trkpt lat="43.92634" lon="7.17993">
        <ele>288.532959</ele>
        <time>2012-03-11T09:39:51Z</time>
      </trkpt>
      <trkpt lat="43.92692" lon="7.17976">
        <ele>295.2619629</ele>
        <time>2012-03-11T09:40:25Z</time>
      </trkpt>
      <trkpt lat="43.92707" lon="7.17935">
        <ele>299.1072998</ele>
        <time>2012-03-11T09:40:45Z</time>
      </trkpt>
      <trkpt lat="43.92693" lon="7.17805">
        <ele>308.720459</ele>
        <time>2012-03-11T09:41:41Z</time>
      </trkpt>
      <trkpt lat="43.92722" lon="7.17781">
        <ele>311.6044922</ele>
        <time>2012-03-11T09:41:59Z</time>
      </trkpt>
      <trkpt lat="43.92746" lon="7.17786">
        <ele>314.4884033</ele>
        <time>2012-03-11T09:42:12Z</time>
      </trkpt>
      <trkpt lat="43.92775" lon="7.17803">
        <ele>317.3724365</ele>
        <time>2012-03-11T09:42:30Z</time>
      </trkpt>
      <trkpt lat="43.92851" lon="7.17794">
        <ele>325.0629883</ele>
        <time>2012-03-11T09:43:13Z</time>
      </trkpt>
      <trkpt lat="43.92918" lon="7.17811">
        <ele>330.8309326</ele>
        <time>2012-03-11T09:43:52Z</time>
      </trkpt>
      <trkpt lat="43.9284" lon="7.17755">
        <ele>339.482666</ele>
        <time>2012-03-11T09:48:42Z</time>
      </trkpt>
      <trkpt lat="43.92747" lon="7.17717">
        <ele>348.6152344</ele>
        <time>2012-03-11T09:49:36Z</time>
      </trkpt>
      <trkpt lat="43.92662" lon="7.17646">
        <ele>358.7089844</ele>
        <time>2012-03-11T09:50:31Z</time>
      </trkpt>
      <trkpt lat="43.9256" lon="7.17656">
        <ele>368.3222656</ele>
        <time>2012-03-11T09:51:26Z</time>
      </trkpt>
      <trkpt lat="43.92506" lon="7.17697">
        <ele>375.0515137</ele>
        <time>2012-03-11T09:52:01Z</time>
      </trkpt>
      <trkpt lat="43.92455" lon="7.17765">
        <ele>381.7806396</ele>
        <time>2012-03-11T09:52:39Z</time>
      </trkpt>
      <trkpt lat="43.92448" lon="7.1793">
        <ele>393.3165283</ele>
        <time>2012-03-11T09:53:48Z</time>
      </trkpt>
      <trkpt lat="43.92439" lon="7.17928">
        <ele>394.2779541</ele>
        <time>2012-03-11T09:53:57Z</time>
      </trkpt>
      <trkpt lat="43.92426" lon="7.17822">
        <ele>403.8911133</ele>
        <time>2012-03-11T09:54:41Z</time>
      </trkpt>
      <trkpt lat="43.92398" lon="7.17751">
        <ele>410.1396484</ele>
        <time>2012-03-11T09:55:16Z</time>
      </trkpt>
      <trkpt lat="43.92421" lon="7.17688">
        <ele>416.3881836</ele>
        <time>2012-03-11T09:55:48Z</time>
      </trkpt>
      <trkpt lat="43.92438" lon="7.17649">
        <ele>419.7528076</ele>
        <time>2012-03-11T09:56:19Z</time>
      </trkpt>
      <trkpt lat="43.92402" lon="7.17658">
        <ele>421.675415</ele>
        <time>2012-03-11T09:56:41Z</time>
      </trkpt>
      <trkpt lat="43.92372" lon="7.17498">
        <ele>432.7307129</ele>
        <time>2012-03-11T09:57:51Z</time>
      </trkpt>
      <trkpt lat="43.92389" lon="7.17455">
        <ele>436.0952148</ele>
        <time>2012-03-11T09:58:11Z</time>
      </trkpt>
      <trkpt lat="43.92433" lon="7.17438">
        <ele>440.9018555</ele>
        <time>2012-03-11T09:58:40Z</time>
      </trkpt>
      <trkpt lat="43.9247" lon="7.17419">
        <ele>443.7857666</ele>
        <time>2012-03-11T09:59:03Z</time>
      </trkpt>
      <trkpt lat="43.92582" lon="7.17435">
        <ele>451.4763184</ele>
        <time>2012-03-11T10:00:09Z</time>
      </trkpt>
      <trkpt lat="43.92471" lon="7.17341">
        <ele>463.9733887</ele>
        <time>2012-03-11T10:01:31Z</time>
      </trkpt>
      <trkpt lat="43.92442" lon="7.17341">
        <ele>467.3381348</ele>
        <time>2012-03-11T10:01:49Z</time>
      </trkpt>
      <trkpt lat="43.92342" lon="7.17346">
        <ele>475.9898682</ele>
        <time>2012-03-11T10:02:43Z</time>
      </trkpt>
      <trkpt lat="43.92331" lon="7.17349">
        <ele>467.1601563</ele>
      </trkpt>
      <trkpt lat="43.92326" lon="7.17306">
        <ele>478.3203125</ele>
      </trkpt>
      <trkpt lat="43.92309" lon="7.17259">
        <ele>485.1132813</ele>
      </trkpt>
      <trkpt lat="43.923" lon="7.17238">
        <ele>485.5117188</ele>
      </trkpt>
      <trkpt lat="43.92301" lon="7.17219">
        <ele>487.4257813</ele>
      </trkpt>
      <trkpt lat="43.92329" lon="7.17178">
        <ele>504.25</ele>
      </trkpt>
      <trkpt lat="43.92349" lon="7.1713">
        <ele>513.171875</ele>
      </trkpt>
      <trkpt lat="43.9236" lon="7.17068">
        <ele>509.984375</ele>
      </trkpt>
      <trkpt lat="43.92338" lon="7.16994">
        <ele>488.2578125</ele>
      </trkpt>
      <trkpt lat="43.92389" lon="7.16927">
        <ele>504.1523438</ele>
      </trkpt>
      <trkpt lat="43.92452" lon="7.16845">
        <ele>504.703125</ele>
      </trkpt>
      <trkpt lat="43.92463" lon="7.16843">
        <ele>508.8671875</ele>
      </trkpt>
      <trkpt lat="43.92528" lon="7.16799">
        <ele>488.0064697</ele>
        <time>2012-03-11T10:12:10Z</time>
      </trkpt>
      <trkpt lat="43.92516" lon="7.16718">
        <ele>497.138916</ele>
        <time>2012-03-11T10:13:45Z</time>
      </trkpt>
      <trkpt lat="43.92546" lon="7.16639">
        <ele>495.2161865</ele>
        <time>2012-03-11T10:14:05Z</time>
      </trkpt>
      <trkpt lat="43.92567" lon="7.1651">
        <ele>498.5809326</ele>
        <time>2012-03-11T10:15:01Z</time>
      </trkpt>
      <trkpt lat="43.92571" lon="7.16503">
        <ele>501.4648438</ele>
        <time>2012-03-11T10:15:24Z</time>
      </trkpt>
      <trkpt lat="43.92591" lon="7.16459">
        <ele>501.9455566</ele>
        <time>2012-03-11T10:15:38Z</time>
      </trkpt>
      <trkpt lat="43.92604" lon="7.16434">
        <ele>508.1940918</ele>
        <time>2012-03-11T10:16:09Z</time>
      </trkpt>
      <trkpt lat="43.92645" lon="7.1633">
        <ele>513.4814453</ele>
        <time>2012-03-11T10:17:05Z</time>
      </trkpt>
      <trkpt lat="43.92645" lon="7.1633">
        <ele>515.4040527</ele>
        <time>2012-03-11T10:17:19Z</time>
      </trkpt>
      <trkpt lat="43.92649" lon="7.16285">
        <ele>521.6525879</ele>
        <time>2012-03-11T10:18:17Z</time>
      </trkpt>
      <trkpt lat="43.92675" lon="7.16159">
        <ele>523.0946045</ele>
        <time>2012-03-11T10:18:43Z</time>
      </trkpt>
      <trkpt lat="43.9266" lon="7.16117">
        <ele>529.3431396</ele>
        <time>2012-03-11T10:19:10Z</time>
      </trkpt>
      <trkpt lat="43.92663" lon="7.16047">
        <ele>525.4978027</ele>
        <time>2012-03-11T10:19:32Z</time>
      </trkpt>
      <trkpt lat="43.92676" lon="7.16025">
        <ele>528.3818359</ele>
        <time>2012-03-11T10:19:54Z</time>
      </trkpt>
      <trkpt lat="43.92705" lon="7.16003">
        <ele>530.7851563</ele>
        <time>2012-03-11T10:21:25Z</time>
      </trkpt>
      <trkpt lat="43.92717" lon="7.15989">
        <ele>528.3818359</ele>
        <time>2012-03-11T10:22:34Z</time>
      </trkpt>
      <trkpt lat="43.92795" lon="7.15961">
        <ele>520.2105713</ele>
        <time>2012-03-11T10:22:53Z</time>
      </trkpt>
      <trkpt lat="43.92886" lon="7.1597">
        <ele>499.0615234</ele>
        <time>2012-03-11T10:23:25Z</time>
      </trkpt>
      <trkpt lat="43.92951" lon="7.15932">
        <ele>490.40979</ele>
        <time>2012-03-11T10:23:44Z</time>
      </trkpt>
      <trkpt lat="43.9305" lon="7.15837">
        <ele>478.3931885</ele>
        <time>2012-03-11T10:24:18Z</time>
      </trkpt>
      <trkpt lat="43.93096" lon="7.15797">
        <ele>467.3381348</ele>
        <time>2012-03-11T10:24:37Z</time>
      </trkpt>
      <trkpt lat="43.93124" lon="7.15744">
        <ele>466.8574219</ele>
        <time>2012-03-11T10:24:56Z</time>
      </trkpt>
      <trkpt lat="43.93131" lon="7.15713">
        <ele>462.5313721</ele>
        <time>2012-03-11T10:25:07Z</time>
      </trkpt>
      <trkpt lat="43.93192" lon="7.15639">
        <ele>457.7249756</ele>
        <time>2012-03-11T10:25:38Z</time>
      </trkpt>
      <trkpt lat="43.93229" lon="7.1563">
        <ele>467.8187256</ele>
        <time>2012-03-11T10:26:56Z</time>
      </trkpt>
      <trkpt lat="43.93248" lon="7.15603">
        <ele>468.7800293</ele>
        <time>2012-03-11T10:27:16Z</time>
      </trkpt>
      <trkpt lat="43.93264" lon="7.15554">
        <ele>470.7026367</ele>
        <time>2012-03-11T10:27:51Z</time>
      </trkpt>
      <trkpt lat="43.93272" lon="7.15522">
        <ele>466.8574219</ele>
        <time>2012-03-11T10:28:02Z</time>
      </trkpt>
      <trkpt lat="43.93286" lon="7.15483">
        <ele>467.3381348</ele>
        <time>2012-03-11T10:28:17Z</time>
      </trkpt>
      <trkpt lat="43.93288" lon="7.15459">
        <ele>468.7800293</ele>
        <time>2012-03-11T10:28:30Z</time>
      </trkpt>
      <trkpt lat="43.93293" lon="7.15418">
        <ele>465.8961182</ele>
        <time>2012-03-11T10:28:45Z</time>
      </trkpt>
      <trkpt lat="43.93293" lon="7.15394">
        <ele>466.8574219</ele>
        <time>2012-03-11T10:28:51Z</time>
      </trkpt>
      <trkpt lat="43.93299" lon="7.15381">
        <ele>465.8961182</ele>
        <time>2012-03-11T10:28:55Z</time>
      </trkpt>
      <trkpt lat="43.93338" lon="7.15405">
        <ele>463.012085</ele>
        <time>2012-03-11T10:29:12Z</time>
      </trkpt>
      <trkpt lat="43.93343" lon="7.15392">
        <ele>462.5313721</ele>
        <time>2012-03-11T10:29:17Z</time>
      </trkpt>
      <trkpt lat="43.93342" lon="7.15381">
        <ele>471.1833496</ele>
        <time>2012-03-11T10:31:02Z</time>
      </trkpt>
      <trkpt lat="43.93358" lon="7.15302">
        <ele>472.1446533</ele>
        <time>2012-03-11T10:31:21Z</time>
      </trkpt>
      <trkpt lat="43.93373" lon="7.15243">
        <ele>496.1777344</ele>
        <time>2012-03-11T10:35:20Z</time>
      </trkpt>
      <trkpt lat="43.93375" lon="7.15119">
        <ele>498.5809326</ele>
        <time>2012-03-11T10:35:41Z</time>
      </trkpt>
      <trkpt lat="43.93375" lon="7.15119">
        <ele>509.1553955</ele>
        <time>2012-03-11T10:40:03Z</time>
      </trkpt>
      <trkpt lat="43.934" lon="7.15053">
        <ele>507.713501</ele>
        <time>2012-03-11T10:40:07Z</time>
      </trkpt>
      <trkpt lat="43.934" lon="7.15063">
        <ele>502.9067383</ele>
        <time>2012-03-11T10:41:53Z</time>
      </trkpt>
      <trkpt lat="43.934" lon="7.15063">
        <ele>512.5200195</ele>
        <time>2012-03-11T10:43:18Z</time>
      </trkpt>
      <trkpt lat="43.934" lon="7.15027">
        <ele>513.0007324</ele>
        <time>2012-03-11T10:43:30Z</time>
      </trkpt>
      <trkpt lat="43.93403" lon="7.14999">
        <ele>514.442627</ele>
        <time>2012-03-11T10:43:40Z</time>
      </trkpt>
      <trkpt lat="43.93402" lon="7.14957">
        <ele>530.3044434</ele>
        <time>2012-03-11T10:45:39Z</time>
      </trkpt>
      <trkpt lat="43.93447" lon="7.14923">
        <ele>533.6689453</ele>
        <time>2012-03-11T10:45:58Z</time>
      </trkpt>
      <trkpt lat="43.93522" lon="7.14977">
        <ele>539.9176025</ele>
        <time>2012-03-11T10:47:04Z</time>
      </trkpt>
      <trkpt lat="43.93566" lon="7.1501">
        <ele>539.9176025</ele>
        <time>2012-03-11T10:47:20Z</time>
      </trkpt>
      <trkpt lat="43.93629" lon="7.15074">
        <ele>535.1109619</ele>
        <time>2012-03-11T10:47:42Z</time>
      </trkpt>
      <trkpt lat="43.93655" lon="7.15094">
        <ele>531.2657471</ele>
        <time>2012-03-11T10:47:50Z</time>
      </trkpt>
      <trkpt lat="43.9371" lon="7.15021">
        <ele>526.4591064</ele>
        <time>2012-03-11T10:48:14Z</time>
      </trkpt>
      <trkpt lat="43.93734" lon="7.1501">
        <ele>529.3431396</ele>
        <time>2012-03-11T10:48:28Z</time>
      </trkpt>
      <trkpt lat="43.9377" lon="7.15074">
        <ele>531.7463379</ele>
        <time>2012-03-11T10:48:54Z</time>
      </trkpt>
      <trkpt lat="43.93826" lon="7.15146">
        <ele>522.6138916</ele>
        <time>2012-03-11T10:49:19Z</time>
      </trkpt>
      <trkpt lat="43.93844" lon="7.15206">
        <ele>523.5751953</ele>
        <time>2012-03-11T10:49:33Z</time>
      </trkpt>
      <trkpt lat="43.93927" lon="7.15298">
        <ele>526.9398193</ele>
        <time>2012-03-11T10:52:40Z</time>
      </trkpt>
      <trkpt lat="43.9403" lon="7.15276">
        <ele>522.1331787</ele>
        <time>2012-03-11T10:53:12Z</time>
      </trkpt>
      <trkpt lat="43.94068" lon="7.15235">
        <ele>534.1496582</ele>
        <time>2012-03-11T10:54:17Z</time>
      </trkpt>
      <trkpt lat="43.94102" lon="7.15219">
        <ele>535.1109619</ele>
        <time>2012-03-11T10:54:21Z</time>
      </trkpt>
      <trkpt lat="43.94102" lon="7.15219">
        <ele>538.475708</ele>
        <time>2012-03-11T10:54:37Z</time>
      </trkpt>
      <trkpt lat="43.94126" lon="7.15229">
        <ele>538.9562988</ele>
        <time>2012-03-11T10:54:47Z</time>
      </trkpt>
      <trkpt lat="43.94141" lon="7.15233">
        <ele>541.84021</ele>
        <time>2012-03-11T10:55:03Z</time>
      </trkpt>
      <trkpt lat="43.94172" lon="7.15257">
        <ele>543.2821045</ele>
        <time>2012-03-11T10:55:21Z</time>
      </trkpt>
      <trkpt lat="43.94209" lon="7.15279">
        <ele>540.3983154</ele>
        <time>2012-03-11T10:55:33Z</time>
      </trkpt>
      <trkpt lat="43.943" lon="7.15252">
        <ele>540.3983154</ele>
        <time>2012-03-11T10:55:55Z</time>
      </trkpt>
      <trkpt lat="43.94321" lon="7.1522">
        <ele>546.6468506</ele>
        <time>2012-03-11T10:56:29Z</time>
      </trkpt>
      <trkpt lat="43.94347" lon="7.15188">
        <ele>545.6855469</ele>
        <time>2012-03-11T10:56:41Z</time>
      </trkpt>
      <trkpt lat="43.94383" lon="7.1518">
        <ele>548.0888672</ele>
        <time>2012-03-11T10:56:58Z</time>
      </trkpt>
      <trkpt lat="43.94409" lon="7.15134">
        <ele>560.1052246</ele>
        <time>2012-03-11T10:58:13Z</time>
      </trkpt>
      <trkpt lat="43.94434" lon="7.15084">
        <ele>559.144043</ele>
        <time>2012-03-11T10:58:18Z</time>
      </trkpt>
      <trkpt lat="43.94484" lon="7.15069">
        <ele>555.7792969</ele>
        <time>2012-03-11T10:58:32Z</time>
      </trkpt>
      <trkpt lat="43.94524" lon="7.14993">
        <ele>553.8566895</ele>
        <time>2012-03-11T10:58:51Z</time>
      </trkpt>
      <trkpt lat="43.94585" lon="7.15027">
        <ele>543.2821045</ele>
        <time>2012-03-11T10:59:16Z</time>
      </trkpt>
      <trkpt lat="43.94637" lon="7.15126">
        <ele>529.8237305</ele>
        <time>2012-03-11T10:59:34Z</time>
      </trkpt>
      <trkpt lat="43.94671" lon="7.15131">
        <ele>529.3431396</ele>
        <time>2012-03-11T10:59:48Z</time>
      </trkpt>
      <trkpt lat="43.94705" lon="7.15096">
        <ele>526.9398193</ele>
        <time>2012-03-11T11:00:04Z</time>
      </trkpt>
      <trkpt lat="43.9474" lon="7.15094">
        <ele>530.7851563</ele>
        <time>2012-03-11T11:00:33Z</time>
      </trkpt>
      <trkpt lat="43.94788" lon="7.15032">
        <ele>535.5915527</ele>
        <time>2012-03-11T11:01:02Z</time>
      </trkpt>
      <trkpt lat="43.94819" lon="7.15031">
        <ele>541.84021</ele>
        <time>2012-03-11T11:01:25Z</time>
      </trkpt>
      <trkpt lat="43.94851" lon="7.15008">
        <ele>546.1662598</ele>
        <time>2012-03-11T11:01:52Z</time>
      </trkpt>
      <trkpt lat="43.9488" lon="7.14949">
        <ele>550.9726563</ele>
        <time>2012-03-11T11:02:27Z</time>
      </trkpt>
      <trkpt lat="43.94903" lon="7.14861">
        <ele>551.934082</ele>
        <time>2012-03-11T11:03:00Z</time>
      </trkpt>
      <trkpt lat="43.95004" lon="7.14778">
        <ele>561.0666504</ele>
        <time>2012-03-11T11:04:09Z</time>
      </trkpt>
      <trkpt lat="43.95081" lon="7.14657">
        <ele>575.967041</ele>
        <time>2012-03-11T11:05:46Z</time>
      </trkpt>
      <trkpt lat="43.95145" lon="7.14636">
        <ele>582.2155762</ele>
        <time>2012-03-11T11:06:26Z</time>
      </trkpt>
      <trkpt lat="43.95219" lon="7.14578">
        <ele>581.2543945</ele>
        <time>2012-03-11T11:06:59Z</time>
      </trkpt>
      <trkpt lat="43.95248" lon="7.1451">
        <ele>578.3703613</ele>
        <time>2012-03-11T11:07:17Z</time>
      </trkpt>
      <trkpt lat="43.953" lon="7.14464">
        <ele>577.8896484</ele>
        <time>2012-03-11T11:08:16Z</time>
      </trkpt>
      <trkpt lat="43.95307" lon="7.14444">
        <ele>575.0058594</ele>
        <time>2012-03-11T11:12:15Z</time>
      </trkpt>
      <trkpt lat="43.95339" lon="7.14428">
        <ele>567.7956543</ele>
        <time>2012-03-11T11:12:27Z</time>
      </trkpt>
      <trkpt lat="43.95385" lon="7.14302">
        <ele>562.9892578</ele>
        <time>2012-03-11T11:15:52Z</time>
      </trkpt>
      <trkpt lat="43.95373" lon="7.14289">
        <ele>566.3537598</ele>
        <time>2012-03-11T11:16:05Z</time>
      </trkpt>
      <trkpt lat="43.95347" lon="7.14279">
        <ele>566.3537598</ele>
        <time>2012-03-11T11:16:19Z</time>
      </trkpt>
      <trkpt lat="43.95338" lon="7.14266">
        <ele>565.3925781</ele>
        <time>2012-03-11T11:16:23Z</time>
      </trkpt>
      <trkpt lat="43.95351" lon="7.14236">
        <ele>561.0666504</ele>
        <time>2012-03-11T11:16:36Z</time>
      </trkpt>
      <trkpt lat="43.95337" lon="7.14227">
        <ele>562.0280762</ele>
        <time>2012-03-11T11:16:44Z</time>
      </trkpt>
      <trkpt lat="43.95334" lon="7.14179">
        <ele>560.1052246</ele>
        <time>2012-03-11T11:16:58Z</time>
      </trkpt>
      <trkpt lat="43.95276" lon="7.14086">
        <ele>562.9892578</ele>
        <time>2012-03-11T11:17:32Z</time>
      </trkpt>
      <trkpt lat="43.95276" lon="7.14044">
        <ele>562.9892578</ele>
        <time>2012-03-11T11:17:45Z</time>
      </trkpt>
      <trkpt lat="43.95271" lon="7.14009">
        <ele>561.0666504</ele>
        <time>2012-03-11T11:17:53Z</time>
      </trkpt>
      <trkpt lat="43.95245" lon="7.14006">
        <ele>558.6633301</ele>
        <time>2012-03-11T11:18:01Z</time>
      </trkpt>
      <trkpt lat="43.95225" lon="7.1401">
        <ele>552.4145508</ele>
        <time>2012-03-11T11:18:07Z</time>
      </trkpt>
      <trkpt lat="43.95213" lon="7.13996">
        <ele>550.0114746</ele>
        <time>2012-03-11T11:18:12Z</time>
      </trkpt>
      <trkpt lat="43.95217" lon="7.13956">
        <ele>549.0500488</ele>
        <time>2012-03-11T11:18:33Z</time>
      </trkpt>
      <trkpt lat="43.95218" lon="7.13931">
        <ele>547.1274414</ele>
        <time>2012-03-11T11:18:41Z</time>
      </trkpt>
      <trkpt lat="43.95226" lon="7.13911">
        <ele>546.1662598</ele>
        <time>2012-03-11T11:18:56Z</time>
      </trkpt>
      <trkpt lat="43.95208" lon="7.1392">
        <ele>552.4145508</ele>
        <time>2012-03-11T11:19:28Z</time>
      </trkpt>
      <trkpt lat="43.95163" lon="7.13953">
        <ele>554.8178711</ele>
        <time>2012-03-11T11:19:50Z</time>
      </trkpt>
      <trkpt lat="43.95141" lon="7.13938">
        <ele>557.7021484</ele>
        <time>2012-03-11T11:20:03Z</time>
      </trkpt>
      <trkpt lat="43.95135" lon="7.13864">
        <ele>560.5859375</ele>
        <time>2012-03-11T11:20:34Z</time>
      </trkpt>
      <trkpt lat="43.9515" lon="7.13827">
        <ele>562.0280762</ele>
        <time>2012-03-11T11:20:48Z</time>
      </trkpt>
      <trkpt lat="43.95143" lon="7.13734">
        <ele>562.0280762</ele>
        <time>2012-03-11T11:21:24Z</time>
      </trkpt>
      <trkpt lat="43.95114" lon="7.13757">
        <ele>564.9118652</ele>
        <time>2012-03-11T11:21:49Z</time>
      </trkpt>
      <trkpt lat="43.95087" lon="7.13735">
        <ele>567.7956543</ele>
        <time>2012-03-11T11:22:06Z</time>
      </trkpt>
      <trkpt lat="43.95043" lon="7.13741">
        <ele>572.6025391</ele>
        <time>2012-03-11T11:22:36Z</time>
      </trkpt>
      <trkpt lat="43.95031" lon="7.13737">
        <ele>573.083252</ele>
        <time>2012-03-11T11:22:47Z</time>
      </trkpt>
      <trkpt lat="43.95004" lon="7.13701">
        <ele>575.0058594</ele>
        <time>2012-03-11T11:23:16Z</time>
      </trkpt>
      <trkpt lat="43.94951" lon="7.13671">
        <ele>580.2929688</ele>
        <time>2012-03-11T11:24:03Z</time>
      </trkpt>
      <trkpt lat="43.94965" lon="7.13655">
        <ele>587.0219727</ele>
        <time>2012-03-11T11:24:50Z</time>
      </trkpt>
      <trkpt lat="43.94969" lon="7.13629">
        <ele>588.9450684</ele>
        <time>2012-03-11T11:25:06Z</time>
      </trkpt>
      <trkpt lat="43.94952" lon="7.13587">
        <ele>584.1381836</ele>
        <time>2012-03-11T11:25:17Z</time>
      </trkpt>
      <trkpt lat="43.94929" lon="7.13558">
        <ele>575.0058594</ele>
        <time>2012-03-11T11:25:29Z</time>
      </trkpt>
      <trkpt lat="43.94958" lon="7.13542">
        <ele>568.2763672</ele>
        <time>2012-03-11T11:25:41Z</time>
      </trkpt>
      <trkpt lat="43.94933" lon="7.13459">
        <ele>542.8015137</ele>
        <time>2012-03-11T11:26:33Z</time>
      </trkpt>
      <trkpt lat="43.949" lon="7.13433">
        <ele>538.9562988</ele>
        <time>2012-03-11T11:26:48Z</time>
      </trkpt>
      <trkpt lat="43.94883" lon="7.13431">
        <ele>536.0723877</ele>
        <time>2012-03-11T11:26:56Z</time>
      </trkpt>
      <trkpt lat="43.9487" lon="7.13421">
        <ele>530.3044434</ele>
        <time>2012-03-11T11:27:25Z</time>
      </trkpt>
      <trkpt lat="43.9487" lon="7.13396">
        <ele>529.8237305</ele>
        <time>2012-03-11T11:27:47Z</time>
      </trkpt>
      <trkpt lat="43.94868" lon="7.13377">
        <ele>525.9783936</ele>
        <time>2012-03-11T11:27:56Z</time>
      </trkpt>
      <trkpt lat="43.94876" lon="7.13357">
        <ele>523.0946045</ele>
        <time>2012-03-11T11:27:59Z</time>
      </trkpt>
      <trkpt lat="43.94869" lon="7.13331">
        <ele>514.442627</ele>
        <time>2012-03-11T11:28:07Z</time>
      </trkpt>
      <trkpt lat="43.94858" lon="7.13334">
        <ele>511.5587158</ele>
        <time>2012-03-11T11:28:12Z</time>
      </trkpt>
      <trkpt lat="43.94864" lon="7.13261">
        <ele>502.9067383</ele>
        <time>2012-03-11T11:28:30Z</time>
      </trkpt>
      <trkpt lat="43.94868" lon="7.13228">
        <ele>496.1777344</ele>
        <time>2012-03-11T11:28:40Z</time>
      </trkpt>
      <trkpt lat="43.9481" lon="7.13143">
        <ele>484.1611328</ele>
        <time>2012-03-11T11:29:05Z</time>
      </trkpt>
      <trkpt lat="43.94796" lon="7.13138">
        <ele>481.2772217</ele>
        <time>2012-03-11T11:29:08Z</time>
      </trkpt>
      <trkpt lat="43.94795" lon="7.13095">
        <ele>477.9124756</ele>
        <time>2012-03-11T11:29:11Z</time>
      </trkpt>
      <trkpt lat="43.94747" lon="7.13081">
        <ele>460.6087646</ele>
        <time>2012-03-11T11:29:36Z</time>
      </trkpt>
      <trkpt lat="43.94748" lon="7.1306">
        <ele>459.1668701</ele>
        <time>2012-03-11T11:29:38Z</time>
      </trkpt>
      <trkpt lat="43.94715" lon="7.13027">
        <ele>450.5150146</ele>
        <time>2012-03-11T11:30:07Z</time>
      </trkpt>
      <trkpt lat="43.94671" lon="7.1302">
        <ele>447.1502686</ele>
        <time>2012-03-11T11:30:20Z</time>
      </trkpt>
      <trkpt lat="43.94587" lon="7.13019">
        <ele>432.7307129</ele>
        <time>2012-03-11T11:32:46Z</time>
      </trkpt>
      <trkpt lat="43.94561" lon="7.13013">
        <ele>426.0013428</ele>
        <time>2012-03-11T11:32:57Z</time>
      </trkpt>
      <trkpt lat="43.94542" lon="7.13005">
        <ele>412.5428467</ele>
        <time>2012-03-11T11:33:18Z</time>
      </trkpt>
      <trkpt lat="43.94487" lon="7.12978">
        <ele>399.0843506</ele>
        <time>2012-03-11T11:33:36Z</time>
      </trkpt>
      <trkpt lat="43.94597" lon="7.12996">
        <ele>391.8745117</ele>
        <time>2012-03-11T11:34:05Z</time>
      </trkpt>
      <trkpt lat="43.94599" lon="7.12954">
        <ele>389.4711914</ele>
        <time>2012-03-11T11:34:11Z</time>
      </trkpt>
      <trkpt lat="43.94483" lon="7.12841">
        <ele>396.6811523</ele>
        <time>2012-03-11T11:34:54Z</time>
      </trkpt>
      <trkpt lat="43.94482" lon="7.12821">
        <ele>396.6811523</ele>
        <time>2012-03-11T11:35:00Z</time>
      </trkpt>
      <trkpt lat="43.94527" lon="7.12787">
        <ele>400.5264893</ele>
        <time>2012-03-11T11:35:22Z</time>
      </trkpt>
      <trkpt lat="43.94593" lon="7.12661">
        <ele>408.6976318</ele>
        <time>2012-03-11T11:36:09Z</time>
      </trkpt>
      <trkpt lat="43.94602" lon="7.12591">
        <ele>412.0622559</ele>
        <time>2012-03-11T11:36:32Z</time>
      </trkpt>
      <trkpt lat="43.94568" lon="7.12452">
        <ele>410.1396484</ele>
        <time>2012-03-11T11:37:02Z</time>
      </trkpt>
      <trkpt lat="43.94585" lon="7.12375">
        <ele>412.0622559</ele>
        <time>2012-03-11T11:37:17Z</time>
      </trkpt>
      <trkpt lat="43.94572" lon="7.12365">
        <ele>413.5042725</ele>
        <time>2012-03-11T11:37:25Z</time>
      </trkpt>
      <trkpt lat="43.9454" lon="7.12388">
        <ele>415.4268799</ele>
        <time>2012-03-11T11:37:38Z</time>
      </trkpt>
      <trkpt lat="43.94513" lon="7.12489">
        <ele>421.675415</ele>
        <time>2012-03-11T11:38:11Z</time>
      </trkpt>
      <trkpt lat="43.94508" lon="7.12565">
        <ele>424.5594482</ele>
        <time>2012-03-11T11:38:35Z</time>
      </trkpt>
      <trkpt lat="43.94413" lon="7.12591">
        <ele>431.769165</ele>
        <time>2012-03-11T11:39:21Z</time>
      </trkpt>
      <trkpt lat="43.94373" lon="7.1256">
        <ele>436.0952148</ele>
        <time>2012-03-11T11:39:44Z</time>
      </trkpt>
      <trkpt lat="43.94331" lon="7.1258">
        <ele>438.979126</ele>
        <time>2012-03-11T11:40:05Z</time>
      </trkpt>
      <trkpt lat="43.94262" lon="7.12573">
        <ele>444.2664795</ele>
        <time>2012-03-11T11:40:40Z</time>
      </trkpt>
      <trkpt lat="43.94248" lon="7.12559">
        <ele>445.2276611</ele>
        <time>2012-03-11T11:40:54Z</time>
      </trkpt>
      <trkpt lat="43.94184" lon="7.12529">
        <ele>442.3438721</ele>
        <time>2012-03-11T11:41:26Z</time>
      </trkpt>
      <trkpt lat="43.94126" lon="7.12549">
        <ele>436.5759277</ele>
        <time>2012-03-11T11:41:45Z</time>
      </trkpt>
      <trkpt lat="43.94186" lon="7.12592">
        <ele>428.4046631</ele>
        <time>2012-03-11T11:41:59Z</time>
      </trkpt>
      <trkpt lat="43.94223" lon="7.12644">
        <ele>413.0235596</ele>
        <time>2012-03-11T11:42:18Z</time>
      </trkpt>
      <trkpt lat="43.94297" lon="7.12675">
        <ele>398.6037598</ele>
        <time>2012-03-11T11:42:39Z</time>
      </trkpt>
      <trkpt lat="43.94351" lon="7.12727">
        <ele>388.9906006</ele>
        <time>2012-03-11T11:42:59Z</time>
      </trkpt>
      <trkpt lat="43.94413" lon="7.12781">
        <ele>372.1674805</ele>
        <time>2012-03-11T11:43:16Z</time>
      </trkpt>
      <trkpt lat="43.94406" lon="7.12813">
        <ele>368.8029785</ele>
        <time>2012-03-11T11:43:21Z</time>
      </trkpt>
      <trkpt lat="43.94405" lon="7.12836">
        <ele>363.5157471</ele>
        <time>2012-03-11T11:43:28Z</time>
      </trkpt>
      <trkpt lat="43.94423" lon="7.12845">
        <ele>359.6704102</ele>
        <time>2012-03-11T11:43:37Z</time>
      </trkpt>
      <trkpt lat="43.94443" lon="7.12899">
        <ele>362.0737305</ele>
        <time>2012-03-11T11:44:03Z</time>
      </trkpt>
      <trkpt lat="43.94431" lon="7.12902">
        <ele>365.4383545</ele>
        <time>2012-03-11T11:44:17Z</time>
      </trkpt>
      <trkpt lat="43.94434" lon="7.12916">
        <ele>368.3222656</ele>
        <time>2012-03-11T11:44:29Z</time>
      </trkpt>
      <trkpt lat="43.94435" lon="7.12921">
        <ele>369.2836914</ele>
        <time>2012-03-11T11:44:47Z</time>
      </trkpt>
      <trkpt lat="43.94445" lon="7.12946">
        <ele>375.0515137</ele>
        <time>2012-03-11T11:46:29Z</time>
      </trkpt>
      <trkpt lat="43.94452" lon="7.12942">
        <ele>376.9742432</ele>
        <time>2012-03-11T11:46:40Z</time>
      </trkpt>
      <trkpt lat="43.94463" lon="7.12939">
        <ele>379.3774414</ele>
        <time>2012-03-11T11:46:53Z</time>
      </trkpt>
      <trkpt lat="43.94468" lon="7.12983">
        <ele>396.2005615</ele>
        <time>2012-03-11T11:48:48Z</time>
      </trkpt>
      <trkpt lat="43.94474" lon="7.12979">
        <ele>396.2005615</ele>
        <time>2012-03-11T11:49:03Z</time>
      </trkpt>
      <trkpt lat="43.94475" lon="7.12981">
        <ele>396.2005615</ele>
        <time>2012-03-11T11:49:06Z</time>
      </trkpt>
      <trkpt lat="43.94476" lon="7.13065">
        <ele>400.5264893</ele>
        <time>2012-03-11T11:49:43Z</time>
      </trkpt>
      <trkpt lat="43.94436" lon="7.13094">
        <ele>403.8911133</ele>
        <time>2012-03-11T11:50:09Z</time>
      </trkpt>
      <trkpt lat="43.94423" lon="7.13086">
        <ele>404.8522949</ele>
        <time>2012-03-11T11:50:17Z</time>
      </trkpt>
      <trkpt lat="43.94395" lon="7.13059">
        <ele>406.7749023</ele>
        <time>2012-03-11T11:50:35Z</time>
      </trkpt>
      <trkpt lat="43.9434" lon="7.13045">
        <ele>409.6590576</ele>
        <time>2012-03-11T11:51:02Z</time>
      </trkpt>
      <trkpt lat="43.94317" lon="7.1314">
        <ele>413.0235596</ele>
        <time>2012-03-11T11:51:38Z</time>
      </trkpt>
      <trkpt lat="43.94287" lon="7.13159">
        <ele>415.9074707</ele>
        <time>2012-03-11T11:52:51Z</time>
      </trkpt>
      <trkpt lat="43.94271" lon="7.1321">
        <ele>419.2722168</ele>
        <time>2012-03-11T11:53:10Z</time>
      </trkpt>
      <trkpt lat="43.94263" lon="7.13282">
        <ele>422.1560059</ele>
        <time>2012-03-11T11:53:34Z</time>
      </trkpt>
      <trkpt lat="43.94237" lon="7.13345">
        <ele>425.520752</ele>
        <time>2012-03-11T11:53:56Z</time>
      </trkpt>
      <trkpt lat="43.94209" lon="7.13404">
        <ele>428.885376</ele>
        <time>2012-03-11T11:54:17Z</time>
      </trkpt>
      <trkpt lat="43.94175" lon="7.13435">
        <ele>431.769165</ele>
        <time>2012-03-11T11:54:36Z</time>
      </trkpt>
      <trkpt lat="43.94175" lon="7.1348">
        <ele>434.1726074</ele>
        <time>2012-03-11T11:54:53Z</time>
      </trkpt>
      <trkpt lat="43.9427" lon="7.13696">
        <ele>448.1118164</ele>
        <time>2012-03-11T11:56:29Z</time>
      </trkpt>
      <trkpt lat="43.94283" lon="7.13743">
        <ele>450.5150146</ele>
        <time>2012-03-11T11:56:47Z</time>
      </trkpt>
      <trkpt lat="43.94288" lon="7.13783">
        <ele>453.3989258</ele>
        <time>2012-03-11T11:57:05Z</time>
      </trkpt>
      <trkpt lat="43.94264" lon="7.13801">
        <ele>455.3215332</ele>
        <time>2012-03-11T11:57:19Z</time>
      </trkpt>
      <trkpt lat="43.94256" lon="7.1381">
        <ele>456.282959</ele>
        <time>2012-03-11T11:57:24Z</time>
      </trkpt>
      <trkpt lat="43.9426" lon="7.13861">
        <ele>459.647583</ele>
        <time>2012-03-11T11:57:43Z</time>
      </trkpt>
      <trkpt lat="43.94289" lon="7.1393">
        <ele>464.4541016</ele>
        <time>2012-03-11T11:58:14Z</time>
      </trkpt>
      <trkpt lat="43.94282" lon="7.13997">
        <ele>469.741333</ele>
        <time>2012-03-11T11:58:42Z</time>
      </trkpt>
      <trkpt lat="43.94256" lon="7.14046">
        <ele>471.6639404</ele>
        <time>2012-03-11T11:59:03Z</time>
      </trkpt>
      <trkpt lat="43.94281" lon="7.141">
        <ele>473.1060791</ele>
        <time>2012-03-11T11:59:25Z</time>
      </trkpt>
      <trkpt lat="43.94372" lon="7.14084">
        <ele>470.2219238</ele>
        <time>2012-03-11T11:59:49Z</time>
      </trkpt>
      <trkpt lat="43.94429" lon="7.14092">
        <ele>465.8961182</ele>
        <time>2012-03-11T11:59:58Z</time>
      </trkpt>
      <trkpt lat="43.94471" lon="7.14025">
        <ele>464.4541016</ele>
        <time>2012-03-11T12:00:08Z</time>
      </trkpt>
      <trkpt lat="43.94515" lon="7.14016">
        <ele>461.0894775</ele>
        <time>2012-03-11T12:00:15Z</time>
      </trkpt>
      <trkpt lat="43.94548" lon="7.14083">
        <ele>459.1668701</ele>
        <time>2012-03-11T12:00:24Z</time>
      </trkpt>
      <trkpt lat="43.94591" lon="7.14128">
        <ele>457.7249756</ele>
        <time>2012-03-11T12:00:32Z</time>
      </trkpt>
      <trkpt lat="43.94672" lon="7.14124">
        <ele>454.8408203</ele>
        <time>2012-03-11T12:00:45Z</time>
      </trkpt>
      <trkpt lat="43.94725" lon="7.14171">
        <ele>451.9570313</ele>
        <time>2012-03-11T12:00:54Z</time>
      </trkpt>
      <trkpt lat="43.94764" lon="7.14148">
        <ele>449.5537109</ele>
        <time>2012-03-11T12:01:00Z</time>
      </trkpt>
      <trkpt lat="43.94812" lon="7.14093">
        <ele>445.708374</ele>
        <time>2012-03-11T12:01:11Z</time>
      </trkpt>
      <trkpt lat="43.94923" lon="7.1405">
        <ele>447.1502686</ele>
        <time>2012-03-11T12:01:35Z</time>
      </trkpt>
      <trkpt lat="43.94945" lon="7.14051">
        <ele>449.5537109</ele>
        <time>2012-03-11T12:01:44Z</time>
      </trkpt>
      <trkpt lat="43.94971" lon="7.14085">
        <ele>452.9182129</ele>
        <time>2012-03-11T12:02:00Z</time>
      </trkpt>
      <trkpt lat="43.94974" lon="7.14088">
        <ele>452.4376221</ele>
        <time>2012-03-11T12:02:02Z</time>
      </trkpt>
      <trkpt lat="43.9501" lon="7.14088">
        <ele>455.8022461</ele>
        <time>2012-03-11T12:02:21Z</time>
      </trkpt>
      <trkpt lat="43.95018" lon="7.14099">
        <ele>455.8022461</ele>
        <time>2012-03-11T12:02:26Z</time>
      </trkpt>
      <trkpt lat="43.95011" lon="7.14118">
        <ele>456.7635498</ele>
        <time>2012-03-11T12:02:34Z</time>
      </trkpt>
      <trkpt lat="43.9498" lon="7.14138">
        <ele>460.1281738</ele>
        <time>2012-03-11T12:02:53Z</time>
      </trkpt>
      <trkpt lat="43.94922" lon="7.14177">
        <ele>464.9348145</ele>
        <time>2012-03-11T12:03:28Z</time>
      </trkpt>
      <trkpt lat="43.94887" lon="7.1431">
        <ele>472.6253662</ele>
        <time>2012-03-11T12:04:20Z</time>
      </trkpt>
      <trkpt lat="43.94894" lon="7.14407">
        <ele>478.3931885</ele>
        <time>2012-03-11T12:04:58Z</time>
      </trkpt>
      <trkpt lat="43.94786" lon="7.1447">
        <ele>488.9677734</ele>
        <time>2012-03-11T12:06:03Z</time>
      </trkpt>
      <trkpt lat="43.94765" lon="7.14526">
        <ele>491.3709717</ele>
        <time>2012-03-11T12:06:25Z</time>
      </trkpt>
      <trkpt lat="43.94765" lon="7.14613">
        <ele>494.2550049</ele>
        <time>2012-03-11T12:06:52Z</time>
      </trkpt>
      <trkpt lat="43.94793" lon="7.14792">
        <ele>502.9067383</ele>
        <time>2012-03-11T12:07:47Z</time>
      </trkpt>
      <trkpt lat="43.94734" lon="7.14908">
        <ele>511.5587158</ele>
        <time>2012-03-11T12:08:40Z</time>
      </trkpt>
      <trkpt lat="43.94724" lon="7.14977">
        <ele>515.4040527</ele>
        <time>2012-03-11T12:09:07Z</time>
      </trkpt>
      <trkpt lat="43.94732" lon="7.15038">
        <ele>517.807251</ele>
        <time>2012-03-11T12:09:28Z</time>
      </trkpt>
      <trkpt lat="43.94718" lon="7.15081">
        <ele>520.6912842</ele>
        <time>2012-03-11T12:09:45Z</time>
      </trkpt>
      <trkpt lat="43.94676" lon="7.15126">
        <ele>524.0557861</ele>
        <time>2012-03-11T12:10:11Z</time>
      </trkpt>
      <trkpt lat="43.94634" lon="7.15126">
        <ele>525.9783936</ele>
        <time>2012-03-11T12:10:35Z</time>
      </trkpt>
      <trkpt lat="43.94578" lon="7.15021">
        <ele>538.9562988</ele>
        <time>2012-03-11T12:11:45Z</time>
      </trkpt>
      <trkpt lat="43.9456" lon="7.15005">
        <ele>542.8015137</ele>
        <time>2012-03-11T12:12:02Z</time>
      </trkpt>
      <trkpt lat="43.94548" lon="7.15024">
        <ele>575.967041</ele>
        <time>2012-03-11T12:15:12Z</time>
      </trkpt>
      <trkpt lat="43.94501" lon="7.15123">
        <ele>579.331543</ele>
        <time>2012-03-11T12:16:09Z</time>
      </trkpt>
      <trkpt lat="43.94501" lon="7.15123">
        <ele>586.5415039</ele>
        <time>2012-03-11T12:17:45Z</time>
      </trkpt>
      <trkpt lat="43.94458" lon="7.15164">
        <ele>587.9833984</ele>
        <time>2012-03-11T12:17:55Z</time>
      </trkpt>
      <trkpt lat="43.94449" lon="7.15191">
        <ele>608.1713867</ele>
        <time>2012-03-11T12:19:44Z</time>
      </trkpt>
      <trkpt lat="43.94403" lon="7.15299">
        <ele>605.7680664</ele>
        <time>2012-03-11T12:19:58Z</time>
      </trkpt>
      <trkpt lat="43.94385" lon="7.15328">
        <ele>601.4418945</ele>
        <time>2012-03-11T12:21:00Z</time>
      </trkpt>
      <trkpt lat="43.94375" lon="7.15362">
        <ele>602.4030762</ele>
        <time>2012-03-11T12:21:42Z</time>
      </trkpt>
      <trkpt lat="43.94375" lon="7.15371">
        <ele>599.5192871</ele>
        <time>2012-03-11T12:21:50Z</time>
      </trkpt>
      <trkpt lat="43.94385" lon="7.15328">
        <ele>587.0219727</ele>
        <time>2012-03-11T12:22:58Z</time>
      </trkpt>
      <trkpt lat="43.94338" lon="7.15354">
        <ele>583.1767578</ele>
        <time>2012-03-11T12:23:04Z</time>
      </trkpt>
      <trkpt lat="43.94312" lon="7.15351">
        <ele>574.0444336</ele>
        <time>2012-03-11T12:23:27Z</time>
      </trkpt>
      <trkpt lat="43.94308" lon="7.1535">
        <ele>572.1218262</ele>
        <time>2012-03-11T12:23:31Z</time>
      </trkpt>
      <trkpt lat="43.943" lon="7.15353">
        <ele>569.237793</ele>
        <time>2012-03-11T12:23:36Z</time>
      </trkpt>
      <trkpt lat="43.94259" lon="7.15333">
        <ele>554.8178711</ele>
        <time>2012-03-11T12:24:11Z</time>
      </trkpt>
      <trkpt lat="43.94225" lon="7.15289">
        <ele>540.3983154</ele>
        <time>2012-03-11T12:24:36Z</time>
      </trkpt>
      <trkpt lat="43.94143" lon="7.15236">
        <ele>535.5915527</ele>
        <time>2012-03-11T12:25:13Z</time>
      </trkpt>
      <trkpt lat="43.94098" lon="7.15217">
        <ele>528.3818359</ele>
        <time>2012-03-11T12:25:26Z</time>
      </trkpt>
      <trkpt lat="43.94042" lon="7.15267">
        <ele>516.3652344</ele>
        <time>2012-03-11T12:25:45Z</time>
      </trkpt>
      <trkpt lat="43.9394" lon="7.15308">
        <ele>520.6912842</ele>
        <time>2012-03-11T12:26:20Z</time>
      </trkpt>
      <trkpt lat="43.93914" lon="7.15285">
        <ele>527.901001</ele>
        <time>2012-03-11T12:35:35Z</time>
      </trkpt>
      <trkpt lat="43.93885" lon="7.15251">
        <ele>531.7463379</ele>
        <time>2012-03-11T12:35:57Z</time>
      </trkpt>
      <trkpt lat="43.93885" lon="7.15251">
        <ele>537.9949951</ele>
        <time>2012-03-11T12:36:41Z</time>
      </trkpt>
      <trkpt lat="43.9382" lon="7.15238">
        <ele>571.6408691</ele>
        <time>2012-03-11T12:41:30Z</time>
      </trkpt>
      <trkpt lat="43.93746" lon="7.15166">
        <ele>574.5251465</ele>
        <time>2012-03-11T12:41:52Z</time>
      </trkpt>
      <trkpt lat="43.93746" lon="7.15166">
        <ele>582.6962891</ele>
        <time>2012-03-11T12:42:38Z</time>
      </trkpt>
      <trkpt lat="43.93708" lon="7.15169">
        <ele>585.5800781</ele>
        <time>2012-03-11T12:44:48Z</time>
      </trkpt>
      <trkpt lat="43.93669" lon="7.15212">
        <ele>605.2873535</ele>
        <time>2012-03-11T12:46:57Z</time>
      </trkpt>
      <trkpt lat="43.93566" lon="7.15184">
        <ele>612.0166016</ele>
        <time>2012-03-11T12:47:39Z</time>
      </trkpt>
      <trkpt lat="43.93566" lon="7.15184">
        <ele>614.4196777</ele>
        <time>2012-03-11T12:47:58Z</time>
      </trkpt>
      <trkpt lat="43.9357" lon="7.15247">
        <ele>613.4584961</ele>
        <time>2012-03-11T12:48:28Z</time>
      </trkpt>
      <trkpt lat="43.93572" lon="7.1529">
        <ele>623.0717773</ele>
        <time>2012-03-11T12:49:29Z</time>
      </trkpt>
      <trkpt lat="43.936" lon="7.15376">
        <ele>625.4748535</ele>
        <time>2012-03-11T12:49:50Z</time>
      </trkpt>
      <trkpt lat="43.93555" lon="7.15519">
        <ele>630.2814941</ele>
        <time>2012-03-11T12:50:38Z</time>
      </trkpt>
      <trkpt lat="43.93548" lon="7.15686">
        <ele>624.5136719</ele>
        <time>2012-03-11T12:51:11Z</time>
      </trkpt>
      <trkpt lat="43.93475" lon="7.15754">
        <ele>632.2041016</ele>
        <time>2012-03-11T12:51:53Z</time>
      </trkpt>
      <trkpt lat="43.93438" lon="7.15777">
        <ele>634.6074219</ele>
        <time>2012-03-11T12:52:15Z</time>
      </trkpt>
      <trkpt lat="43.9336" lon="7.15839">
        <ele>637.4914551</ele>
        <time>2012-03-11T12:53:00Z</time>
      </trkpt>
      <trkpt lat="43.93335" lon="7.15894">
        <ele>637.0107422</ele>
        <time>2012-03-11T12:55:24Z</time>
      </trkpt>
      <trkpt lat="43.93247" lon="7.16015">
        <ele>647.1044922</ele>
        <time>2012-03-11T13:05:21Z</time>
      </trkpt>
      <trkpt lat="43.9319" lon="7.16141">
        <ele>651.4304199</ele>
        <time>2012-03-11T13:05:58Z</time>
      </trkpt>
      <trkpt lat="43.93174" lon="7.16155">
        <ele>654.795166</ele>
        <time>2012-03-11T13:06:12Z</time>
      </trkpt>
      <trkpt lat="43.93124" lon="7.16222">
        <ele>659.6018066</ele>
        <time>2012-03-11T13:06:52Z</time>
      </trkpt>
      <trkpt lat="43.93099" lon="7.16239">
        <ele>689.4025879</ele>
        <time>2012-03-11T13:10:22Z</time>
      </trkpt>
      <trkpt lat="43.93076" lon="7.16419">
        <ele>694.6896973</ele>
        <time>2012-03-11T13:11:12Z</time>
      </trkpt>
      <trkpt lat="43.93044" lon="7.16456">
        <ele>704.3032227</ele>
        <time>2012-03-11T13:12:17Z</time>
      </trkpt>
      <trkpt lat="43.93033" lon="7.16446">
        <ele>710.5515137</ele>
        <time>2012-03-11T13:12:47Z</time>
      </trkpt>
      <trkpt lat="43.93029" lon="7.16439">
        <ele>711.5129395</ele>
        <time>2012-03-11T13:12:58Z</time>
      </trkpt>
      <trkpt lat="43.93015" lon="7.16432">
        <ele>713.9160156</ele>
        <time>2012-03-11T13:13:28Z</time>
      </trkpt>
      <trkpt lat="43.93014" lon="7.16431">
        <ele>713.9160156</ele>
        <time>2012-03-11T13:13:30Z</time>
      </trkpt>
      <trkpt lat="43.93004" lon="7.16408">
        <ele>713.9160156</ele>
        <time>2012-03-11T13:13:41Z</time>
      </trkpt>
      <trkpt lat="43.92996" lon="7.16414">
        <ele>712.954834</ele>
        <time>2012-03-11T13:13:50Z</time>
      </trkpt>
      <trkpt lat="43.92927" lon="7.16492">
        <ele>705.2644043</ele>
        <time>2012-03-11T13:14:19Z</time>
      </trkpt>
      <trkpt lat="43.92897" lon="7.16513">
        <ele>695.651123</ele>
        <time>2012-03-11T13:14:32Z</time>
      </trkpt>
      <trkpt lat="43.92874" lon="7.16532">
        <ele>684.5961914</ele>
        <time>2012-03-11T13:15:00Z</time>
      </trkpt>
      <trkpt lat="43.92854" lon="7.16584">
        <ele>674.5021973</ele>
        <time>2012-03-11T13:15:23Z</time>
      </trkpt>
      <trkpt lat="43.92845" lon="7.16558">
        <ele>674.9829102</ele>
        <time>2012-03-11T13:15:40Z</time>
      </trkpt>
      <trkpt lat="43.92805" lon="7.16628">
        <ele>666.8115234</ele>
        <time>2012-03-11T13:16:02Z</time>
      </trkpt>
      <trkpt lat="43.92789" lon="7.16663">
        <ele>654.795166</ele>
        <time>2012-03-11T13:16:41Z</time>
      </trkpt>
      <trkpt lat="43.92789" lon="7.1665">
        <ele>651.9111328</ele>
        <time>2012-03-11T13:16:51Z</time>
      </trkpt>
      <trkpt lat="43.92769" lon="7.16657">
        <ele>643.7399902</ele>
        <time>2012-03-11T13:17:05Z</time>
      </trkpt>
      <trkpt lat="43.92755" lon="7.16682">
        <ele>634.126709</ele>
        <time>2012-03-11T13:17:23Z</time>
      </trkpt>
      <trkpt lat="43.92739" lon="7.16677">
        <ele>629.8007813</ele>
        <time>2012-03-11T13:17:30Z</time>
      </trkpt>
      <trkpt lat="43.92728" lon="7.16691">
        <ele>621.1491699</ele>
        <time>2012-03-11T13:17:45Z</time>
      </trkpt>
      <trkpt lat="43.92714" lon="7.16674">
        <ele>617.3037109</ele>
        <time>2012-03-11T13:17:55Z</time>
      </trkpt>
      <trkpt lat="43.92712" lon="7.16707">
        <ele>611.0551758</ele>
        <time>2012-03-11T13:18:08Z</time>
      </trkpt>
      <trkpt lat="43.92701" lon="7.16704">
        <ele>609.1325684</ele>
        <time>2012-03-11T13:18:14Z</time>
      </trkpt>
      <trkpt lat="43.92686" lon="7.16717">
        <ele>600.9611816</ele>
        <time>2012-03-11T13:18:30Z</time>
      </trkpt>
      <trkpt lat="43.92693" lon="7.16729">
        <ele>598.5578613</ele>
        <time>2012-03-11T13:18:36Z</time>
      </trkpt>
      <trkpt lat="43.92667" lon="7.16718">
        <ele>591.3481445</ele>
        <time>2012-03-11T13:18:50Z</time>
      </trkpt>
      <trkpt lat="43.92669" lon="7.16736">
        <ele>584.6188965</ele>
        <time>2012-03-11T13:19:41Z</time>
      </trkpt>
      <trkpt lat="43.92651" lon="7.16733">
        <ele>579.331543</ele>
        <time>2012-03-11T13:19:49Z</time>
      </trkpt>
      <trkpt lat="43.92644" lon="7.16739">
        <ele>575.0058594</ele>
        <time>2012-03-11T13:19:56Z</time>
      </trkpt>
      <trkpt lat="43.92629" lon="7.16767">
        <ele>565.3925781</ele>
        <time>2012-03-11T13:20:12Z</time>
      </trkpt>
      <trkpt lat="43.92621" lon="7.16768">
        <ele>560.5859375</ele>
        <time>2012-03-11T13:20:16Z</time>
      </trkpt>
      <trkpt lat="43.92632" lon="7.16794">
        <ele>555.298584</ele>
        <time>2012-03-11T13:20:50Z</time>
      </trkpt>
      <trkpt lat="43.92597" lon="7.16853">
        <ele>552.8952637</ele>
        <time>2012-03-11T13:21:13Z</time>
      </trkpt>
      <trkpt lat="43.92536" lon="7.16888">
        <ele>539.9176025</ele>
        <time>2012-03-11T13:22:13Z</time>
      </trkpt>
      <trkpt lat="43.92519" lon="7.16914">
        <ele>534.6303711</ele>
        <time>2012-03-11T13:22:22Z</time>
      </trkpt>
      <trkpt lat="43.9252" lon="7.16861">
        <ele>525.0172119</ele>
        <time>2012-03-11T13:22:40Z</time>
      </trkpt>
      <trkpt lat="43.92478" lon="7.16939">
        <ele>515.8846436</ele>
        <time>2012-03-11T13:23:02Z</time>
      </trkpt>
      <trkpt lat="43.92403" lon="7.16985">
        <ele>508.6746826</ele>
        <time>2012-03-11T13:23:16Z</time>
      </trkpt>
      <trkpt lat="43.9239" lon="7.1701">
        <ele>506.2714844</ele>
        <time>2012-03-11T13:23:20Z</time>
      </trkpt>
      <trkpt lat="43.92391" lon="7.17089">
        <ele>500.50354</ele>
        <time>2012-03-11T13:23:32Z</time>
      </trkpt>
      <trkpt lat="43.92326" lon="7.17212">
        <ele>488.0064697</ele>
        <time>2012-03-11T13:24:10Z</time>
      </trkpt>
      <trkpt lat="43.92326" lon="7.1726">
        <ele>484.6418457</ele>
        <time>2012-03-11T13:24:21Z</time>
      </trkpt>
      <trkpt lat="43.92338" lon="7.17339">
        <ele>474.0672607</ele>
        <time>2012-03-11T13:24:45Z</time>
      </trkpt>
      <trkpt lat="43.92352" lon="7.17383">
        <ele>464.4541016</ele>
        <time>2012-03-11T13:25:04Z</time>
      </trkpt>
      <trkpt lat="43.92399" lon="7.17453">
        <ele>450.5150146</ele>
        <time>2012-03-11T13:25:18Z</time>
      </trkpt>
      <trkpt lat="43.92487" lon="7.17423">
        <ele>436.5759277</ele>
        <time>2012-03-11T13:25:40Z</time>
      </trkpt>
      <trkpt lat="43.92528" lon="7.17463">
        <ele>430.3272705</ele>
        <time>2012-03-11T13:25:48Z</time>
      </trkpt>
      <trkpt lat="43.92568" lon="7.17539">
        <ele>419.2722168</ele>
        <time>2012-03-11T13:26:02Z</time>
      </trkpt>
      <trkpt lat="43.92463" lon="7.17645">
        <ele>413.5042725</ele>
        <time>2012-03-11T13:27:10Z</time>
      </trkpt>
      <trkpt lat="43.92482" lon="7.17647">
        <ele>402.9296875</ele>
        <time>2012-03-11T13:27:37Z</time>
      </trkpt>
      <trkpt lat="43.92488" lon="7.17714">
        <ele>397.6424561</ele>
        <time>2012-03-11T13:27:58Z</time>
      </trkpt>
      <trkpt lat="43.92473" lon="7.17735">
        <ele>391.8745117</ele>
        <time>2012-03-11T13:28:07Z</time>
      </trkpt>
      <trkpt lat="43.92471" lon="7.17734">
        <ele>376.0128174</ele>
        <time>2012-03-11T13:28:39Z</time>
      </trkpt>
      <trkpt lat="43.92499" lon="7.17801">
        <ele>366.3995361</ele>
        <time>2012-03-11T13:28:58Z</time>
      </trkpt>
      <trkpt lat="43.92507" lon="7.1783">
        <ele>358.7089844</ele>
        <time>2012-03-11T13:29:04Z</time>
      </trkpt>
      <trkpt lat="43.92553" lon="7.17843">
        <ele>346.2120361</ele>
        <time>2012-03-11T13:29:16Z</time>
      </trkpt>
      <trkpt lat="43.92574" lon="7.17878">
        <ele>334.1954346</ele>
        <time>2012-03-11T13:29:26Z</time>
      </trkpt>
      <trkpt lat="43.9262" lon="7.17863">
        <ele>321.2177734</ele>
        <time>2012-03-11T13:29:38Z</time>
      </trkpt>
      <trkpt lat="43.92632" lon="7.17917">
        <ele>312.0852051</ele>
        <time>2012-03-11T13:29:51Z</time>
      </trkpt>
      <trkpt lat="43.92608" lon="7.17956">
        <ele>301.0299072</ele>
        <time>2012-03-11T13:30:02Z</time>
      </trkpt>
      <trkpt lat="43.926" lon="7.18009">
        <ele>295.2619629</ele>
        <time>2012-03-11T13:30:12Z</time>
      </trkpt>
      <trkpt lat="43.92616" lon="7.18027">
        <ele>289.9748535</ele>
        <time>2012-03-11T13:30:17Z</time>
      </trkpt>
      <trkpt lat="43.92626" lon="7.18015">
        <ele>287.5714111</ele>
        <time>2012-03-11T13:30:21Z</time>
      </trkpt>
      <trkpt lat="43.92622" lon="7.18045">
        <ele>281.0390625</ele>
      </trkpt>
      <trkpt lat="43.92569" lon="7.18074">
        <ele>278.8007813</ele>
      </trkpt>
      <trkpt lat="43.92536" lon="7.18116">
        <ele>271.6875</ele>
      </trkpt>
      <trkpt lat="43.92525" lon="7.18216">
        <ele>251.8164063</ele>
      </trkpt>
      <trkpt lat="43.92503" lon="7.18258">
        <ele>254.9804688</ele>
      </trkpt>
      <trkpt lat="43.92464" lon="7.1845">
        <ele>238.8242188</ele>
      </trkpt>
      <trkpt lat="43.92439" lon="7.18496">
        <ele>242.203125</ele>
      </trkpt>
      <trkpt lat="43.9244" lon="7.18531">
        <ele>240.1601563</ele>
      </trkpt>
      <trkpt lat="43.92441" lon="7.18548">
        <ele>238.46875</ele>
      </trkpt>
      <trkpt lat="43.92385" lon="7.18576">
        <ele>238.1523438</ele>
      </trkpt>
      <trkpt lat="43.92328" lon="7.18591">
        <ele>228.2578125</ele>
      </trkpt>
      <trkpt lat="43.92325" lon="7.18597">
        <ele>225.7070313</ele>
      </trkpt>
      <trkpt lat="43.92369" lon="7.18625">
        <ele>222.4765625</ele>
      </trkpt>
      <trkpt lat="43.9238" lon="7.18639">
        <ele>219.0976563</ele>
      </trkpt>
      <trkpt lat="43.92491" lon="7.18629">
        <ele>218.328125</ele>
      </trkpt>
      <trkpt lat="43.9254" lon="7.18564">
        <ele>212.9023438</ele>
      </trkpt>
    </trkseg>
  </trk>
</gpx>